createdAt,value
2023-11-26T00:00:16.153Z,28.50
2023-11-26T00:02:46.229Z,29.50
2023-11-26T00:05:14.326Z,28.00
2023-11-26T00:07:42.344Z,29.25
2023-11-26T00:10:10.674Z,27.25
2023-11-26T00:12:38.932Z,23.50
2023-11-26T00:15:10.230Z,24.25
2023-11-26T00:17:37.450Z,27.25
2023-11-26T00:20:08.871Z,25.50
2023-11-26T00:22:36.981Z,23.00
2023-11-26T00:25:05.343Z,26.00
2023-11-26T00:27:33.408Z,32.50
2023-11-26T00:30:01.555Z,31.00
2023-11-26T00:32:32.216Z,32.50
2023-11-26T00:35:01.147Z,32.00
2023-11-26T00:37:30.526Z,33.50
2023-11-26T00:39:59.195Z,33.00
2023-11-26T00:42:27.494Z,31.00
2023-11-26T00:44:55.531Z,33.25
2023-11-26T00:47:23.597Z,34.75
2023-11-26T00:49:52.015Z,31.33
2023-11-26T00:52:20.748Z,36.25
2023-11-26T00:54:50.076Z,33.00
2023-11-26T00:57:18.740Z,26.50
2023-11-26T00:59:46.711Z,35.00
2023-11-26T01:02:15.037Z,31.25
2023-11-26T01:04:43.101Z,31.25
2023-11-26T01:07:11.012Z,28.75
2023-11-26T01:09:38.996Z,31.00
2023-11-26T01:12:09.267Z,26.50
2023-11-26T01:14:37.350Z,26.25
2023-11-26T01:17:05.466Z,27.25
2023-11-26T01:19:34.272Z,27.00
2023-11-26T01:22:02.509Z,24.25
2023-11-26T01:24:30.703Z,24.75
2023-11-26T01:26:58.710Z,26.00
2023-11-26T01:29:28.096Z,20.75
2023-11-26T01:31:56.414Z,27.75
2023-11-26T01:34:24.449Z,21.75
2023-11-26T01:36:52.414Z,23.50
2023-11-26T01:39:20.433Z,20.75
2023-11-26T01:41:48.681Z,22.75
2023-11-26T01:44:16.768Z,21.50
2023-11-26T01:46:46.159Z,21.25
2023-11-26T01:49:14.087Z,21.50
2023-11-26T01:51:42.173Z,22.75
2023-11-26T01:54:10.140Z,18.50
2023-11-26T01:56:38.215Z,18.75
2023-11-26T01:59:06.239Z,17.25
2023-11-26T02:01:34.534Z,18.75
2023-11-26T02:04:04.155Z,18.75
2023-11-26T02:06:32.533Z,19.00
2023-11-26T02:09:00.533Z,19.25
2023-11-26T02:11:28.866Z,18.50
2023-11-26T02:13:57.313Z,17.00
2023-11-26T02:16:25.788Z,17.00
2023-11-26T02:18:53.822Z,16.50
2023-11-26T02:21:23.958Z,18.00
2023-11-26T02:23:52.161Z,16.00
2023-11-26T02:26:22.363Z,15.00
2023-11-26T02:28:50.425Z,16.25
2023-11-26T02:31:18.459Z,15.50
2023-11-26T02:33:54.804Z,15.00
2023-11-26T02:36:26.975Z,15.25
2023-11-26T02:38:55.834Z,16.25
2023-11-26T02:41:25.818Z,13.50
2023-11-26T02:43:53.952Z,15.00
2023-11-26T02:46:22.430Z,13.00
2023-11-26T02:48:50.379Z,14.50
2023-11-26T02:51:18.363Z,13.50
2023-11-26T02:53:46.398Z,13.25
2023-11-26T02:56:15.125Z,12.00
2023-11-26T02:58:44.541Z,13.25
2023-11-26T03:01:19.431Z,13.25
2023-11-26T03:03:48.670Z,12.00
2023-11-26T03:06:17.220Z,11.00
2023-11-26T03:08:45.402Z,10.75
2023-11-26T03:11:31.140Z,10.25
2023-11-26T03:14:00.575Z,13.25
2023-11-26T03:16:28.748Z,10.25
2023-11-26T03:18:56.874Z,12.00
2023-11-26T03:21:30.170Z,11.25
2023-11-26T03:23:58.260Z,10.25
2023-11-26T03:26:28.222Z,11.00
2023-11-26T03:28:57.775Z,10.00
2023-11-26T03:31:28.703Z,9.00
2023-11-26T03:33:56.767Z,8.75
2023-11-26T03:36:24.807Z,9.50
2023-11-26T03:38:53.666Z,10.00
2023-11-26T03:41:21.948Z,10.00
2023-11-26T03:43:49.981Z,8.75
2023-11-26T03:46:18.356Z,8.50
2023-11-26T03:48:47.701Z,8.00
2023-11-26T03:51:18.993Z,7.75
2023-11-26T03:53:47.000Z,8.25
2023-11-26T03:56:15.392Z,10.00
2023-11-26T03:58:43.543Z,7.75
2023-11-26T04:01:12.924Z,10.00
2023-11-26T04:03:41.080Z,8.25
2023-11-26T04:06:10.695Z,6.50
2023-11-26T04:08:38.669Z,7.75
2023-11-26T04:11:07.406Z,7.25
2023-11-26T04:13:35.461Z,7.50
2023-11-26T04:16:06.087Z,8.75
2023-11-26T04:18:35.157Z,7.50
2023-11-26T04:21:03.765Z,7.75
2023-11-26T04:23:34.160Z,7.50
2023-11-26T04:26:02.755Z,7.50
2023-11-26T04:28:31.806Z,6.25
2023-11-26T04:31:00.171Z,7.25
2023-11-26T04:33:28.191Z,6.00
2023-11-26T04:35:56.157Z,6.00
2023-11-26T04:38:24.166Z,6.00
2023-11-26T04:40:53.862Z,7.00
2023-11-26T04:43:22.713Z,6.25
2023-11-26T04:45:50.669Z,6.25
2023-11-26T04:48:18.652Z,5.50
2023-11-26T04:50:46.633Z,6.00
2023-11-26T04:53:14.955Z,5.50
2023-11-26T04:55:43.808Z,5.75
2023-11-26T04:58:13.516Z,6.00
2023-11-26T05:00:41.754Z,7.50
2023-11-26T05:03:09.997Z,5.25
2023-11-26T05:05:38.407Z,7.00
2023-11-26T05:08:07.193Z,6.50
2023-11-26T05:10:35.842Z,7.00
2023-11-26T05:13:03.875Z,6.00
2023-11-26T05:15:33.176Z,5.25
2023-11-26T05:18:01.246Z,6.25
2023-11-26T05:20:29.297Z,5.75
2023-11-26T05:22:58.110Z,5.00
2023-11-26T05:25:26.738Z,6.00
2023-11-26T05:27:54.735Z,4.75
2023-11-26T05:30:22.902Z,4.00
2023-11-26T05:32:52.273Z,5.50
2023-11-26T05:35:20.914Z,5.50
2023-11-26T05:37:48.972Z,4.75
2023-11-26T05:40:16.937Z,5.00
2023-11-26T05:42:45.537Z,5.50
2023-11-26T05:45:13.743Z,6.00
2023-11-26T05:47:41.835Z,4.50
2023-11-26T05:50:12.037Z,5.50
2023-11-26T05:52:40.079Z,4.50
2023-11-26T05:55:08.719Z,5.75
2023-11-26T05:57:36.726Z,5.00
2023-11-26T06:00:08.363Z,4.50
2023-11-26T06:02:36.687Z,4.00
2023-11-26T06:05:04.769Z,4.50
2023-11-26T06:07:34.422Z,5.50
2023-11-26T06:10:02.414Z,5.25
2023-11-26T06:12:30.703Z,3.50
2023-11-26T06:14:58.627Z,5.00
2023-11-26T06:17:26.602Z,5.50
2023-11-26T06:19:54.578Z,4.75
2023-11-26T06:22:23.136Z,2.75
2023-11-26T06:24:52.541Z,4.50
2023-11-26T06:27:20.518Z,4.25
2023-11-26T06:29:48.520Z,3.50
2023-11-26T06:32:16.742Z,3.50
2023-11-26T06:34:44.996Z,5.25
2023-11-26T06:37:12.930Z,3.50
2023-11-26T06:39:40.907Z,3.50
2023-11-26T06:42:11.352Z,4.50
2023-11-26T06:44:39.358Z,3.50
2023-11-26T06:47:07.457Z,4.25
2023-11-26T06:49:35.435Z,4.25
2023-11-26T06:52:03.684Z,4.50
2023-11-26T06:54:31.691Z,6.00
2023-11-26T06:56:59.752Z,5.75
2023-11-26T06:59:29.117Z,4.50
2023-11-26T07:01:57.427Z,7.50
2023-11-26T07:04:25.572Z,10.25
2023-11-26T07:06:53.612Z,13.25
2023-11-26T07:09:21.642Z,7.50
2023-11-26T07:11:49.903Z,10.75
2023-11-26T07:14:17.836Z,14.75
2023-11-26T07:16:47.384Z,14.75
2023-11-26T07:19:15.340Z,14.50
2023-11-26T07:21:43.797Z,17.25
2023-11-26T07:24:11.858Z,16.00
2023-11-26T07:26:40.027Z,17.25
2023-11-26T07:29:10.965Z,21.75
2023-11-26T07:31:40.217Z,16.75
2023-11-26T07:34:09.726Z,19.00
2023-11-26T07:36:38.216Z,19.75
2023-11-26T07:39:06.357Z,21.25
2023-11-26T07:41:34.960Z,21.00
2023-11-26T07:44:02.946Z,21.25
2023-11-26T07:46:31.301Z,20.25
2023-11-26T07:48:59.557Z,18.50
2023-11-26T07:51:28.939Z,19.00
2023-11-26T07:53:56.940Z,20.75
2023-11-26T07:56:24.924Z,18.50
2023-11-26T07:58:53.000Z,20.00
2023-11-26T08:01:21.262Z,17.00
2023-11-26T08:03:50.926Z,17.00
2023-11-26T08:06:19.329Z,17.75
2023-11-26T08:08:48.669Z,21.25
2023-11-26T08:11:17.380Z,20.00
2023-11-26T08:13:46.053Z,19.00
2023-11-26T08:16:15.591Z,17.00
2023-11-26T08:18:43.701Z,19.00
2023-11-26T08:21:11.978Z,17.00
2023-11-26T08:23:41.653Z,19.00
2023-11-26T08:26:14.497Z,19.25
2023-11-26T08:28:44.029Z,17.75
2023-11-26T08:31:12.940Z,18.25
2023-11-26T08:33:44.858Z,16.50
2023-11-26T08:36:16.626Z,16.75
2023-11-26T08:38:44.829Z,17.75
2023-11-26T08:41:15.180Z,16.75
2023-11-26T08:43:45.605Z,16.00
2023-11-26T08:46:17.610Z,16.50
2023-11-26T08:48:46.213Z,14.00
2023-11-26T08:51:14.910Z,16.25
2023-11-26T08:53:42.932Z,15.25
2023-11-26T08:56:11.271Z,17.00
2023-11-26T08:58:40.606Z,16.25
2023-11-26T09:01:08.831Z,19.00
2023-11-26T09:03:38.723Z,22.50
2023-11-26T09:06:09.210Z,23.00
2023-11-26T09:08:37.320Z,22.75
2023-11-26T09:11:05.603Z,25.50
2023-11-26T09:13:33.566Z,31.75
2023-11-26T09:16:03.256Z,24.50
2023-11-26T09:18:31.267Z,28.50
2023-11-26T09:20:59.865Z,26.75
2023-11-26T09:23:29.835Z,25.25
2023-11-26T09:25:58.586Z,26.25
2023-11-26T09:28:26.812Z,31.75
2023-11-26T09:30:54.767Z,26.50
2023-11-26T09:33:24.248Z,27.50
2023-11-26T09:35:52.755Z,25.00
2023-11-26T09:38:20.688Z,27.75
2023-11-26T09:40:48.629Z,28.25
2023-11-26T09:43:16.544Z,27.25
2023-11-26T09:45:46.824Z,28.50
2023-11-26T09:48:14.930Z,27.00
2023-11-26T09:50:44.354Z,24.75
2023-11-26T09:53:12.326Z,27.25
2023-11-26T09:55:41.208Z,27.75
2023-11-26T09:58:09.428Z,26.25
2023-11-26T10:00:37.973Z,28.25
2023-11-26T10:03:06.448Z,24.00
2023-11-26T10:05:34.649Z,23.25
2023-11-26T10:08:04.224Z,25.25
2023-11-26T10:10:32.608Z,25.50
2023-11-26T10:13:01.618Z,24.75
2023-11-26T10:15:30.673Z,23.00
2023-11-26T10:18:04.731Z,23.00
2023-11-26T10:20:33.395Z,22.00
2023-11-26T10:23:01.333Z,20.75
2023-11-26T10:25:30.715Z,22.75
2023-11-26T10:28:00.851Z,18.75
2023-11-26T10:30:30.269Z,21.50
2023-11-26T10:33:03.599Z,22.50
2023-11-26T10:35:55.161Z,20.25
2023-11-26T10:38:26.941Z,17.25
2023-11-26T10:40:58.004Z,18.50
2023-11-26T10:43:26.510Z,19.00
2023-11-26T10:45:54.512Z,19.00
2023-11-26T10:48:23.995Z,17.00
2023-11-26T10:50:55.780Z,18.75
2023-11-26T10:53:23.689Z,16.25
2023-11-26T10:55:53.345Z,18.25
2023-11-26T10:58:23.849Z,18.75
2023-11-26T11:00:55.212Z,16.75
2023-11-26T11:03:25.457Z,18.75
2023-11-26T11:05:55.396Z,15.25
2023-11-26T11:08:25.200Z,18.25
2023-11-26T11:10:59.604Z,14.75
2023-11-26T11:13:28.961Z,14.00
2023-11-26T11:15:56.951Z,15.75
2023-11-26T11:18:40.969Z,16.50
2023-11-26T11:21:11.201Z,14.00
2023-11-26T11:23:40.472Z,16.50
2023-11-26T11:26:09.074Z,17.75
2023-11-26T11:28:40.032Z,16.00
2023-11-26T11:31:09.512Z,14.50
2023-11-26T11:33:37.593Z,16.25
2023-11-26T11:36:09.140Z,14.50
2023-11-26T11:39:05.043Z,13.50
2023-11-26T11:41:33.033Z,15.75
2023-11-26T11:44:30.041Z,15.00
2023-11-26T11:46:58.030Z,13.50
2023-11-26T11:49:29.691Z,17.00
2023-11-26T11:51:57.704Z,16.00
2023-11-26T11:54:56.619Z,14.25
2023-11-26T11:57:25.918Z,12.25
2023-11-26T11:59:56.442Z,13.75
2023-11-26T12:02:24.751Z,12.50
2023-11-26T12:04:53.070Z,13.00
2023-11-26T12:07:21.833Z,12.75
2023-11-26T12:09:49.869Z,13.50
2023-11-26T12:12:21.417Z,12.75
2023-11-26T12:14:49.648Z,11.25
2023-11-26T12:17:19.050Z,11.75
2023-11-26T12:19:47.027Z,12.50
2023-11-26T12:22:15.627Z,13.00
2023-11-26T12:24:43.681Z,13.25
2023-11-26T12:27:23.563Z,11.75
2023-11-26T12:29:51.575Z,12.75
2023-11-26T12:32:27.618Z,11.25
2023-11-26T12:35:01.975Z,12.25
2023-11-26T12:37:29.968Z,12.50
2023-11-26T12:39:57.927Z,12.25
2023-11-26T12:42:27.750Z,10.75
2023-11-26T12:44:55.810Z,10.75
2023-11-26T12:47:25.293Z,12.75
2023-11-26T12:49:58.683Z,12.75
2023-11-26T12:52:26.700Z,10.50
2023-11-26T12:54:54.628Z,10.25
2023-11-26T12:57:22.693Z,10.75
2023-11-26T12:59:50.660Z,11.25
2023-11-26T13:02:19.214Z,10.25
2023-11-26T13:04:48.717Z,10.50
2023-11-26T13:07:17.359Z,10.00
2023-11-26T13:09:49.847Z,10.00
2023-11-26T13:12:20.369Z,10.25
2023-11-26T13:14:49.766Z,9.75
2023-11-26T13:17:20.731Z,11.25
2023-11-26T13:19:50.689Z,13.50
2023-11-26T13:22:18.954Z,10.25
2023-11-26T13:24:46.974Z,10.50
2023-11-26T13:27:14.995Z,10.25
2023-11-26T13:29:44.301Z,10.25
2023-11-26T13:32:13.370Z,10.25
2023-11-26T13:34:41.501Z,9.50
2023-11-26T13:37:11.132Z,8.50
2023-11-26T13:39:39.083Z,9.50
2023-11-26T13:42:07.497Z,10.50
2023-11-26T13:44:36.758Z,7.50
2023-11-26T13:47:05.421Z,7.50
2023-11-26T13:49:33.474Z,9.25
2023-11-26T13:52:01.921Z,8.25
2023-11-26T13:54:31.303Z,8.50
2023-11-26T13:56:59.317Z,9.25
2023-11-26T13:59:27.446Z,9.00
2023-11-26T14:01:55.860Z,7.50
2023-11-26T14:04:26.402Z,9.25
2023-11-26T14:06:58.878Z,8.50
2023-11-26T14:09:27.154Z,10.25
2023-11-26T14:11:56.519Z,10.25
2023-11-26T14:14:24.484Z,8.25
2023-11-26T14:16:52.602Z,10.00
2023-11-26T14:19:21.461Z,9.75
2023-11-26T14:21:49.501Z,9.00
2023-11-26T14:24:17.493Z,8.50
2023-11-26T14:26:45.730Z,9.00
2023-11-26T14:29:16.005Z,9.50
2023-11-26T14:31:45.633Z,8.00
2023-11-26T14:34:13.737Z,8.75
2023-11-26T14:36:41.844Z,10.00
2023-11-26T14:39:13.018Z,11.50
2023-11-26T14:41:41.535Z,10.50
2023-11-26T14:44:09.588Z,9.25
2023-11-26T14:46:39.377Z,8.50
2023-11-26T14:49:10.122Z,8.50
2023-11-26T14:51:38.192Z,9.25
2023-11-26T14:54:06.374Z,9.25
2023-11-26T14:56:38.637Z,8.25
2023-11-26T14:59:06.612Z,10.50
2023-11-26T15:01:34.966Z,7.25
2023-11-26T15:04:03.784Z,8.00
2023-11-26T15:06:32.020Z,8.50
2023-11-26T15:09:00.689Z,7.25
2023-11-26T15:11:29.822Z,8.75
2023-11-26T15:13:57.773Z,7.50
2023-11-26T15:16:25.810Z,7.50
2023-11-26T15:18:53.957Z,10.50
2023-11-26T15:21:24.609Z,6.75
2023-11-26T15:23:52.606Z,7.25
2023-11-26T15:26:22.967Z,7.25
2023-11-26T15:28:50.974Z,7.75
2023-11-26T15:31:19.313Z,6.75
2023-11-26T15:33:47.429Z,6.50
2023-11-26T15:36:18.184Z,8.50
2023-11-26T15:38:48.812Z,6.50
2023-11-26T15:41:21.664Z,7.25
2023-11-26T15:43:50.220Z,8.50
2023-11-26T15:46:21.837Z,9.75
2023-11-26T15:48:49.859Z,10.00
2023-11-26T15:51:18.013Z,7.50
2023-11-26T15:54:01.872Z,7.25
2023-11-26T15:56:32.006Z,8.50
2023-11-26T15:59:03.025Z,9.25
2023-11-26T16:01:31.409Z,9.50
2023-11-26T16:03:59.614Z,11.00
2023-11-26T16:06:29.736Z,9.75
2023-11-26T16:09:00.705Z,10.25
2023-11-26T16:11:31.804Z,8.00
2023-11-26T16:13:59.954Z,8.75
2023-11-26T16:16:28.010Z,9.25
2023-11-26T16:18:56.598Z,8.25
2023-11-26T16:21:26.327Z,9.00
2023-11-26T16:23:58.825Z,11.75
2023-11-26T16:26:29.019Z,10.00
2023-11-26T16:28:57.030Z,9.00
2023-11-26T16:31:25.409Z,11.25
2023-11-26T16:33:54.473Z,8.75
2023-11-26T16:36:23.974Z,8.75
2023-11-26T16:38:53.715Z,7.50
2023-11-26T16:41:22.408Z,9.25
2023-11-26T16:43:51.765Z,8.50
2023-11-26T16:46:19.840Z,7.75
2023-11-26T16:48:47.920Z,8.50
2023-11-26T16:51:16.750Z,9.50
2023-11-26T16:53:44.759Z,8.50
2023-11-26T16:56:12.862Z,8.25
2023-11-26T16:58:40.852Z,9.00
2023-11-26T17:01:12.310Z,8.00
2023-11-26T17:03:40.549Z,8.75
2023-11-26T17:06:09.517Z,10.75
2023-11-26T17:08:37.481Z,9.00
2023-11-26T17:11:06.757Z,7.75
2023-11-26T17:13:34.758Z,6.75
2023-11-26T17:16:02.908Z,7.25
2023-11-26T17:18:33.194Z,8.75
2023-11-26T17:21:01.143Z,8.25
2023-11-26T17:23:29.200Z,7.25
2023-11-26T17:25:57.948Z,7.25
2023-11-26T17:28:25.997Z,6.25
2023-11-26T17:30:54.023Z,8.00
2023-11-26T17:33:21.999Z,8.75
2023-11-26T17:35:51.345Z,8.25
2023-11-26T17:38:19.313Z,9.00
2023-11-26T17:40:48.647Z,7.00
2023-11-26T17:43:16.597Z,6.75
2023-11-26T17:45:45.493Z,7.50
2023-11-26T17:48:13.774Z,6.00
2023-11-26T17:50:42.705Z,6.50
2023-11-26T17:53:13.396Z,7.50
2023-11-26T17:55:42.512Z,7.00
2023-11-26T17:58:10.532Z,7.25
2023-11-26T18:00:38.975Z,6.75
2023-11-26T18:03:09.541Z,7.50
2023-11-26T18:05:37.691Z,7.25
2023-11-26T18:08:06.265Z,7.25
2023-11-26T18:10:37.595Z,6.50
2023-11-26T18:13:05.881Z,6.50
2023-11-26T18:15:34.208Z,7.25
2023-11-26T18:18:02.352Z,5.75
2023-11-26T18:20:30.754Z,8.25
2023-11-26T18:22:59.565Z,5.50
2023-11-26T18:25:27.508Z,7.00
2023-11-26T18:27:57.477Z,7.50
2023-11-26T18:30:25.890Z,6.25
2023-11-26T18:32:54.256Z,5.75
2023-11-26T18:35:22.300Z,6.75
2023-11-26T18:37:50.999Z,6.75
2023-11-26T18:40:19.002Z,6.50
2023-11-26T18:42:50.554Z,6.50
2023-11-26T18:45:20.316Z,7.25
2023-11-26T18:47:48.746Z,5.50
2023-11-26T18:50:17.124Z,7.25
2023-11-26T18:52:45.089Z,6.50
2023-11-26T18:55:13.412Z,6.50
2023-11-26T18:57:41.494Z,6.50
2023-11-26T19:00:13.603Z,7.25
2023-11-26T19:02:43.837Z,8.25
2023-11-26T19:05:13.925Z,5.50
2023-11-26T19:07:41.926Z,5.50
2023-11-26T19:10:11.203Z,7.00
2023-11-26T19:12:39.720Z,5.25
2023-11-26T19:15:10.644Z,7.00
2023-11-26T19:17:38.709Z,6.25
2023-11-26T19:20:11.162Z,6.50
2023-11-26T19:22:39.640Z,7.50
2023-11-26T19:25:08.524Z,9.25
2023-11-26T19:27:36.637Z,11.25
2023-11-26T19:30:05.169Z,11.75
2023-11-26T19:32:33.817Z,13.25
2023-11-26T19:35:02.597Z,15.00
2023-11-26T19:37:31.954Z,13.25
2023-11-26T19:39:59.970Z,18.00
2023-11-26T19:42:28.373Z,16.00
2023-11-26T19:44:57.206Z,14.00
2023-11-26T19:47:25.095Z,14.25
2023-11-26T19:49:53.407Z,11.00
2023-11-26T19:52:21.381Z,16.00
2023-11-26T19:54:50.768Z,16.50
2023-11-26T19:57:18.982Z,18.25
2023-11-26T19:59:46.922Z,18.50
2023-11-26T20:02:15.222Z,18.00
2023-11-26T20:04:43.188Z,19.00
2023-11-26T20:07:11.180Z,15.50
2023-11-26T20:09:39.177Z,16.50
2023-11-26T20:12:09.499Z,15.75
2023-11-26T20:14:37.504Z,17.25
2023-11-26T20:17:08.053Z,19.25
2023-11-26T20:19:36.368Z,17.25
2023-11-26T20:22:04.834Z,19.25
2023-11-26T20:24:33.978Z,18.75
2023-11-26T20:27:03.831Z,17.75
2023-11-26T20:29:34.262Z,17.50
2023-11-26T20:32:02.609Z,21.25
2023-11-26T20:34:30.600Z,17.50
2023-11-26T20:36:58.722Z,20.25
2023-11-26T20:39:26.773Z,19.25
2023-11-26T20:41:55.088Z,17.00
2023-11-26T20:44:23.031Z,18.75
2023-11-26T20:46:52.439Z,21.00
2023-11-26T20:49:20.484Z,23.00
2023-11-26T20:51:48.500Z,22.25
2023-11-26T20:54:16.484Z,19.75
2023-11-26T20:56:44.439Z,23.00
2023-11-26T20:59:12.604Z,19.00
2023-11-26T21:01:40.960Z,19.50
2023-11-26T21:04:10.446Z,20.00
2023-11-26T21:06:43.413Z,19.50
2023-11-26T21:09:12.078Z,17.75
2023-11-26T21:11:44.333Z,18.50
2023-11-26T21:14:12.329Z,17.25
2023-11-26T21:16:40.304Z,17.75
2023-11-26T21:19:11.612Z,19.00
2023-11-26T21:21:41.435Z,18.00
2023-11-26T21:24:11.503Z,19.50
2023-11-26T21:26:39.871Z,18.50
2023-11-26T21:29:07.963Z,18.25
2023-11-26T21:31:38.858Z,16.25
2023-11-26T21:34:07.227Z,17.25
2023-11-26T21:36:35.333Z,16.50
2023-11-26T21:39:04.801Z,19.75
2023-11-26T21:41:33.164Z,15.50
2023-11-26T21:44:01.735Z,16.25
2023-11-26T21:46:36.114Z,16.75
2023-11-26T21:49:09.578Z,16.25
2023-11-26T21:51:38.578Z,13.75
2023-11-26T21:54:08.029Z,13.75
2023-11-26T21:56:36.567Z,14.25
2023-11-26T21:59:04.573Z,16.00
2023-11-26T22:01:32.917Z,14.25
2023-11-26T22:04:01.108Z,13.25
2023-11-26T22:06:29.133Z,12.50
2023-11-26T22:08:57.268Z,13.25
2023-11-26T22:11:26.908Z,14.50
2023-11-26T22:13:54.863Z,16.00
2023-11-26T22:16:22.989Z,13.75
2023-11-26T22:18:51.093Z,14.00
2023-11-26T22:21:19.832Z,13.25
2023-11-26T22:23:48.102Z,10.25
2023-11-26T22:26:16.190Z,11.50
2023-11-26T22:28:45.526Z,10.25
2023-11-26T22:31:15.698Z,12.25
2023-11-26T22:33:44.035Z,10.25
2023-11-26T22:36:12.370Z,10.75
2023-11-26T22:38:40.360Z,11.00
2023-11-26T22:41:09.117Z,11.00
2023-11-26T22:43:37.882Z,14.50
2023-11-26T22:46:07.914Z,15.50
2023-11-26T22:48:35.883Z,13.25
2023-11-26T22:51:03.880Z,18.00
2023-11-26T22:53:31.868Z,19.00
2023-11-26T22:55:59.865Z,17.25
2023-11-26T22:58:27.822Z,20.75
2023-11-26T23:00:56.129Z,18.75
2023-11-26T23:03:25.996Z,17.75
2023-11-26T23:05:54.036Z,20.25
2023-11-26T23:08:22.002Z,19.00
2023-11-26T23:10:50.018Z,20.00
2023-11-26T23:13:22.894Z,23.50
2023-11-26T23:15:51.360Z,23.50
2023-11-26T23:18:19.368Z,23.00
2023-11-26T23:20:49.111Z,20.25
2023-11-26T23:23:18.222Z,22.00
2023-11-26T23:25:50.461Z,24.50
2023-11-26T23:28:18.559Z,23.00
2023-11-26T23:30:47.901Z,23.25
2023-11-26T23:33:16.763Z,20.75
2023-11-26T23:35:44.787Z,23.25
2023-11-26T23:38:14.100Z,22.50
2023-11-26T23:40:47.297Z,23.25
2023-11-26T23:43:15.334Z,25.75
2023-11-26T23:45:43.875Z,22.50
2023-11-26T23:48:12.376Z,23.75
2023-11-26T23:50:40.427Z,25.00
2023-11-26T23:53:08.412Z,24.00
2023-11-26T23:55:37.794Z,21.00
2023-11-26T23:58:05.800Z,23.50
